Buoy 52609

sailwx.info

Track history (hours):
 
Tides and Currents Weather Stations Pressure Air Temp Water Temp Dewpoint Dewpoint Depression Visibility Wind Speed Wind Dir Waves Ship Positions

Drifting buoy 52609

Last reported at 2015-Jan-25 20:00 UTC. Time now 2015-Jan-26 00:25 UTC.
Position N 15°33' E 135°59'.

Water temperature 27.9 ° C

Date/timePositionNaut miles runAvg speedWind from/ knotsBaromVisibWave heightAir tempDewpointWater temp
2015-Jan-25 20:00N 15°33' E 135°59'1 0.7 27.9
2015-Jan-25 18:00N 15°32' E 135°60'0 0.0 27.9
2015-Jan-25 17:00N 15°32' E 135°60'2 2.3 27.9
2015-Jan-25 16:00N 15°30' E 136°01'0 0.0 27.9
2015-Jan-25 15:00N 15°30' E 136°01'0 0.0 27.9
2015-Jan-25 13:00N 15°30' E 136°01'2 0.9 27.9
2015-Jan-25 11:00N 15°29' E 136°03'1 1.3 27.9
2015-Jan-25 10:00N 15°29' E 136°04'0 0.0 27.9
2015-Jan-25 09:00N 15°29' E 136°04'2 0.5 27.9
2015-Jan-25 06:00N 15°29' E 136°06'0 0.0 27.9
2015-Jan-25 05:00N 15°29' E 136°06'1 0.3 28.0
2015-Jan-25 03:00N 15°29' E 136°07'3 1.3 27.9
2015-Jan-25 01:00N 15°30' E 136°04'0 0.0 28.0
2015-Jan-25 00:00N 15°30' E 136°04'1 0.3 27.9
2015-Jan-24 21:00N 15°30' E 136°05'0 0.2 27.9
2015-Jan-24 19:00N 15°31' E 136°06'1 0.7 27.9
2015-Jan-24 18:00N 15°30' E 136°06'0 0.2 28.0
2015-Jan-24 16:00N 15°30' E 136°06'3 0.5 27.9
2015-Jan-24 10:00N 15°27' E 136°06'0 0.1 28.0
2015-Jan-24 07:00N 15°27' E 136°06'1 1.2 28.0
2015-Jan-24 06:00N 15°26' E 136°07'0 0.0 28.0
2015-Jan-24 05:00N 15°26' E 136°07'1 1.1 28.0
2015-Jan-24 04:00N 15°25' E 136°08'0 0.0 28.0
2015-Jan-24 03:00N 15°25' E 136°08'3 0.9 28.0
2015-Jan-24 00:00N 15°23' E 136°09'1 0.5 28.0
2015-Jan-23 21:00N 15°22' E 136°10'0 0.4 28.0
2015-Jan-23 20:00N 15°22' E 136°11'0 0.2 28.0
2015-Jan-23 19:00N 15°22' E 136°11'1 1.4 28.0
2015-Jan-23 18:00N 15°23' E 136°12'0 0.0 28.0
2015-Jan-23 17:00N 15°23' E 136°12'0 0.0 28.0
2015-Jan-23 16:00N 15°23' E 136°12'4 1.1 28.0
2015-Jan-23 12:00N 15°23' E 136°17'1 0.5 28.0
2015-Jan-23 11:00N 15°23' E 136°16'1 0.5 28.0
2015-Jan-23 09:00N 15°24' E 136°17'1 0.7 28.0
2015-Jan-23 08:00N 15°25' E 136°17'0 0.1 28.0
2015-Jan-23 07:00N 15°25' E 136°17'1 0.8 28.0
2015-Jan-23 06:00N 15°26' E 136°17'0 0.0 28.1
2015-Jan-23 05:00N 15°26' E 136°17'0 0.0 28.1
2015-Jan-23 03:00N 15°26' E 136°17'1 0.5 28.1
2015-Jan-23 01:00N 15°27' E 136°16'0 0.1 28.1
2015-Jan-23 00:00N 15°27' E 136°16'3 3.0 28.1
2015-Jan-22 23:00N 15°26' E 136°13'0 0.0 28.1
2015-Jan-22 21:00N 15°26' E 136°13'1 1.0 28.1
2015-Jan-22 20:00N 15°26' E 136°13'1 0.4 28.1
2015-Jan-22 17:00N 15°25' E 136°12'0 0.0 28.1
2015-Jan-22 16:00N 15°25' E 136°12'3 0.6 28.1
2015-Jan-22 11:00N 15°23' E 136°13'0 0.0 28.1
2015-Jan-22 10:00N 15°23' E 136°13'1 0.3 28.1
2015-Jan-22 07:00N 15°22' E 136°13'0 0.3 28.2
2015-Jan-22 06:00N 15°22' E 136°14'0 0.0 28.2
2015-Jan-22 04:00N 15°22' E 136°14'0 0.0 28.3
2015-Jan-22 03:00N 15°22' E 136°14'1 0.7 28.3
2015-Jan-22 01:00N 15°23' E 136°15'1 0.7 28.1
2015-Jan-22 00:00N 15°24' E 136°15'0 0.0 28.0
2015-Jan-21 23:00N 15°24' E 136°15'0 0.0 28.0
2015-Jan-21 21:00N 15°24' E 136°15'2 0.5 28.0
2015-Jan-21 18:00N 15°24' E 136°13'0 0.2 28.0
2015-Jan-21 17:00N 15°25' E 136°13'1 0.2 28.0
2015-Jan-21 11:00N 15°23' E 136°13'1 0.3 28.0
2015-Jan-21 06:00N 15°23' E 136°12'1 0.9 28.1
2015-Jan-21 05:00N 15°23' E 136°11'0 0.1 28.1
2015-Jan-21 04:00N 15°23' E 136°11'1 0.4 28.1
2015-Jan-21 01:00N 15°21' E 136°11'0 0.0 28.0
2015-Jan-21 00:00N 15°21' E 136°11'2 0.6 28.0
2015-Jan-20 21:00N 15°20' E 136°11'1 0.5 28.0
2015-Jan-20 20:00N 15°19' E 136°12'1 0.7 28.0
2015-Jan-20 19:00N 15°19' E 136°11'1 0.5 28.0
2015-Jan-20 18:00N 15°19' E 136°12'0 0.0 28.0
2015-Jan-20 17:00N 15°19' E 136°12'3 0.9 28.0
2015-Jan-20 13:00N 15°16' E 136°14'3 0.9 28.0
2015-Jan-20 10:00N 15°14' E 136°16'0 0.2 28.0
2015-Jan-20 08:00N 15°14' E 136°16'1 0.3 28.0
2015-Jan-20 06:00N 15°14' E 136°17'2 1.8 28.0
2015-Jan-20 05:00N 15°14' E 136°19'1 0.4 28.1
2015-Jan-20 01:00N 15°14' E 136°20'2 2.5 28.1
2015-Jan-20 00:00N 15°15' E 136°22'0 0.0 28.1
2015-Jan-19 21:00N 15°15' E 136°22'1 0.4 28.2
2015-Jan-19 18:00N 15°17' E 136°22'0 0.0 28.2
2015-Jan-19 17:00N 15°17' E 136°22'1 0.4 28.3
2015-Jan-19 15:00N 15°17' E 136°21'1 0.4 28.3
2015-Jan-19 12:00N 15°18' E 136°20'1 0.4 28.4
2015-Jan-19 09:00N 15°18' E 136°19'0 0.5 28.4
2015-Jan-19 08:00N 15°18' E 136°19'1 0.9 28.6
2015-Jan-19 07:00N 15°18' E 136°18'0 0.4 28.6
2015-Jan-19 06:00N 15°18' E 136°18'1 0.7 28.6
2015-Jan-19 05:00N 15°18' E 136°17'3 0.8 28.6
2015-Jan-19 01:00N 15°15' E 136°17'0 0.1 28.3
2015-Jan-19 00:00N 15°15' E 136°18'0 0.0 28.2
2015-Jan-18 23:00N 15°15' E 136°18'1 0.7 28.1
2015-Jan-18 21:00N 15°13' E 136°18'0 0.0 28.1
2015-Jan-18 20:00N 15°13' E 136°18'0 0.3 28.1
2015-Jan-18 19:00N 15°13' E 136°18'1 0.8 28.1
2015-Jan-18 18:00N 15°12' E 136°19'1 0.9 28.1
2015-Jan-18 17:00N 15°12' E 136°20'2 1.5 28.1
2015-Jan-18 16:00N 15°11' E 136°21'1 1.3 28.1
2015-Jan-18 15:00N 15°12' E 136°20'2 0.6 28.2
2015-Jan-18 12:00N 15°11' E 136°22'2 0.5 28.1
2015-Jan-18 09:00N 15°11' E 136°23'0 0.3 28.2
2015-Jan-18 08:00N 15°11' E 136°23'0 0.2 28.2
2015-Jan-18 07:00N 15°12' E 136°23'1 0.8 28.2
2015-Jan-18 06:00N 15°12' E 136°24'0 0.0 28.3
2015-Jan-18 05:00N 15°12' E 136°24'1 1.0 28.3
2015-Jan-18 04:00N 15°13' E 136°24'0 0.0 28.3
2015-Jan-18 03:00N 15°13' E 136°24'0 0.2 28.2
2015-Jan-18 01:00N 15°13' E 136°24'1 0.3 28.1
2015-Jan-17 23:00N 15°13' E 136°24'0 0.0 28.1
2015-Jan-17 21:00N 15°13' E 136°24'1 0.8 28.1
2015-Jan-17 20:00N 15°13' E 136°25'0 0.5 28.2
2015-Jan-17 19:00N 15°13' E 136°24'0 0.4 28.2
2015-Jan-17 18:00N 15°13' E 136°24'2 0.9 28.2
2015-Jan-17 16:00N 15°12' E 136°23'1 1.4 28.3
2015-Jan-17 15:00N 15°13' E 136°24'2 0.4 28.3
2015-Jan-17 11:00N 15°12' E 136°22'0 0.0 28.3
2015-Jan-17 10:00N 15°12' E 136°22'1 0.3 28.3
2015-Jan-17 07:00N 15°11' E 136°23'1 0.6 28.6
2015-Jan-17 06:00N 15°11' E 136°23'0 0.0 28.6
2015-Jan-17 05:00N 15°11' E 136°23'1 0.5 28.6
2015-Jan-17 03:00N 15°10' E 136°24'0 0.2 28.4
2015-Jan-17 01:00N 15°10' E 136°24'2 0.8 28.2
2015-Jan-16 23:00N 15°08' E 136°24'0 0.0 28.0
2015-Jan-16 22:00N 15°08' E 136°24'2 0.9 28.0
2015-Jan-16 20:00N 15°09' E 136°26'1 0.6 28.0
2015-Jan-16 19:00N 15°09' E 136°25'0 0.5 28.0
2015-Jan-16 18:00N 15°08' E 136°26'0 0.0 28.0
2015-Jan-16 17:00N 15°08' E 136°26'0 0.1 28.0
2015-Jan-16 16:00N 15°08' E 136°26'0 0.0 28.0
2015-Jan-16 15:00N 15°08' E 136°26'2 1.0 28.0
2015-Jan-16 13:00N 15°06' E 136°26'1 0.3 28.0
2015-Jan-16 11:00N 15°06' E 136°27'0 0.5 28.0
2015-Jan-16 10:00N 15°06' E 136°27'0 0.1 28.0
2015-Jan-16 09:00N 15°06' E 136°27'0 0.0 28.0
2015-Jan-16 07:00N 15°06' E 136°27'1 0.8 28.0
2015-Jan-16 06:00N 15°06' E 136°28'0 0.3 28.0
2015-Jan-16 05:00N 15°05' E 136°28'0 0.0 28.0
2015-Jan-16 03:00N 15°05' E 136°28'2 1.1 28.0
2015-Jan-16 01:00N 15°03' E 136°28'0 0.3 28.0
2015-Jan-16 00:00N 15°03' E 136°28'0 0.0 27.9
2015-Jan-15 21:00N 15°03' E 136°28'1 0.6 28.0
2015-Jan-15 20:00N 15°02' E 136°28'   28.0
Track history (hours):
 
Tides and Currents Weather Stations Pressure Air Temp Water Temp Dewpoint Dewpoint Depression Visibility Wind Speed Wind Dir Waves Ship Positions

Drifting buoy 52609

Last reported at 2015-Jan-25 20:00 UTC. Time now 2015-Jan-26 00:25 UTC.
Position N 15°33' E 135°59'.

Water temperature 27.9 ° C

Date/timePositionNaut miles runAvg speedWind from/ knotsBaromVisibWave heightAir tempDewpointWater temp
2015-Jan-25 20:00N 15°33' E 135°59'1 0.7 27.9
2015-Jan-25 18:00N 15°32' E 135°60'0 0.0 27.9
2015-Jan-25 17:00N 15°32' E 135°60'2 2.3 27.9
2015-Jan-25 16:00N 15°30' E 136°01'0 0.0 27.9
2015-Jan-25 15:00N 15°30' E 136°01'0 0.0 27.9
2015-Jan-25 13:00N 15°30' E 136°01'2 0.9 27.9
2015-Jan-25 11:00N 15°29' E 136°03'1 1.3 27.9
2015-Jan-25 10:00N 15°29' E 136°04'0 0.0 27.9
2015-Jan-25 09:00N 15°29' E 136°04'2 0.5 27.9
2015-Jan-25 06:00N 15°29' E 136°06'0 0.0 27.9
2015-Jan-25 05:00N 15°29' E 136°06'1 0.3 28.0
2015-Jan-25 03:00N 15°29' E 136°07'3 1.3 27.9
2015-Jan-25 01:00N 15°30' E 136°04'0 0.0 28.0
2015-Jan-25 00:00N 15°30' E 136°04'1 0.3 27.9
2015-Jan-24 21:00N 15°30' E 136°05'0 0.2 27.9
2015-Jan-24 19:00N 15°31' E 136°06'1 0.7 27.9
2015-Jan-24 18:00N 15°30' E 136°06'0 0.2 28.0
2015-Jan-24 16:00N 15°30' E 136°06'3 0.5 27.9
2015-Jan-24 10:00N 15°27' E 136°06'0 0.1 28.0
2015-Jan-24 07:00N 15°27' E 136°06'1 1.2 28.0
2015-Jan-24 06:00N 15°26' E 136°07'0 0.0 28.0
2015-Jan-24 05:00N 15°26' E 136°07'1 1.1 28.0
2015-Jan-24 04:00N 15°25' E 136°08'0 0.0 28.0
2015-Jan-24 03:00N 15°25' E 136°08'3 0.9 28.0
2015-Jan-24 00:00N 15°23' E 136°09'1 0.5 28.0
2015-Jan-23 21:00N 15°22' E 136°10'0 0.4 28.0
2015-Jan-23 20:00N 15°22' E 136°11'0 0.2 28.0
2015-Jan-23 19:00N 15°22' E 136°11'1 1.4 28.0
2015-Jan-23 18:00N 15°23' E 136°12'0 0.0 28.0
2015-Jan-23 17:00N 15°23' E 136°12'0 0.0 28.0
2015-Jan-23 16:00N 15°23' E 136°12'4 1.1 28.0
2015-Jan-23 12:00N 15°23' E 136°17'1 0.5 28.0
2015-Jan-23 11:00N 15°23' E 136°16'1 0.5 28.0
2015-Jan-23 09:00N 15°24' E 136°17'1 0.7 28.0
2015-Jan-23 08:00N 15°25' E 136°17'0 0.1 28.0
2015-Jan-23 07:00N 15°25' E 136°17'1 0.8 28.0
2015-Jan-23 06:00N 15°26' E 136°17'0 0.0 28.1
2015-Jan-23 05:00N 15°26' E 136°17'0 0.0 28.1
2015-Jan-23 03:00N 15°26' E 136°17'1 0.5 28.1
2015-Jan-23 01:00N 15°27' E 136°16'0 0.1 28.1
2015-Jan-23 00:00N 15°27' E 136°16'3 3.0 28.1
2015-Jan-22 23:00N 15°26' E 136°13'0 0.0 28.1
2015-Jan-22 21:00N 15°26' E 136°13'1 1.0 28.1
2015-Jan-22 20:00N 15°26' E 136°13'1 0.4 28.1
2015-Jan-22 17:00N 15°25' E 136°12'0 0.0 28.1
2015-Jan-22 16:00N 15°25' E 136°12'3 0.6 28.1
2015-Jan-22 11:00N 15°23' E 136°13'0 0.0 28.1
2015-Jan-22 10:00N 15°23' E 136°13'1 0.3 28.1
2015-Jan-22 07:00N 15°22' E 136°13'0 0.3 28.2
2015-Jan-22 06:00N 15°22' E 136°14'0 0.0 28.2
2015-Jan-22 04:00N 15°22' E 136°14'0 0.0 28.3
2015-Jan-22 03:00N 15°22' E 136°14'1 0.7 28.3
2015-Jan-22 01:00N 15°23' E 136°15'1 0.7 28.1
2015-Jan-22 00:00N 15°24' E 136°15'0 0.0 28.0
2015-Jan-21 23:00N 15°24' E 136°15'0 0.0 28.0
2015-Jan-21 21:00N 15°24' E 136°15'2 0.5 28.0
2015-Jan-21 18:00N 15°24' E 136°13'0 0.2 28.0
2015-Jan-21 17:00N 15°25' E 136°13'1 0.2 28.0
2015-Jan-21 11:00N 15°23' E 136°13'1 0.3 28.0
2015-Jan-21 06:00N 15°23' E 136°12'1 0.9 28.1
2015-Jan-21 05:00N 15°23' E 136°11'0 0.1 28.1
2015-Jan-21 04:00N 15°23' E 136°11'1 0.4 28.1
2015-Jan-21 01:00N 15°21' E 136°11'0 0.0 28.0
2015-Jan-21 00:00N 15°21' E 136°11'2 0.6 28.0
2015-Jan-20 21:00N 15°20' E 136°11'1 0.5 28.0
2015-Jan-20 20:00N 15°19' E 136°12'1 0.7 28.0
2015-Jan-20 19:00N 15°19' E 136°11'1 0.5 28.0
2015-Jan-20 18:00N 15°19' E 136°12'0 0.0 28.0
2015-Jan-20 17:00N 15°19' E 136°12'3 0.9 28.0
2015-Jan-20 13:00N 15°16' E 136°14'3 0.9 28.0
2015-Jan-20 10:00N 15°14' E 136°16'0 0.2 28.0
2015-Jan-20 08:00N 15°14' E 136°16'1 0.3 28.0
2015-Jan-20 06:00N 15°14' E 136°17'2 1.8 28.0
2015-Jan-20 05:00N 15°14' E 136°19'1 0.4 28.1
2015-Jan-20 01:00N 15°14' E 136°20'2 2.5 28.1
2015-Jan-20 00:00N 15°15' E 136°22'0 0.0 28.1
2015-Jan-19 21:00N 15°15' E 136°22'1 0.4 28.2
2015-Jan-19 18:00N 15°17' E 136°22'0 0.0 28.2
2015-Jan-19 17:00N 15°17' E 136°22'1 0.4 28.3
2015-Jan-19 15:00N 15°17' E 136°21'1 0.4 28.3
2015-Jan-19 12:00N 15°18' E 136°20'1 0.4 28.4
2015-Jan-19 09:00N 15°18' E 136°19'0 0.5 28.4
2015-Jan-19 08:00N 15°18' E 136°19'1 0.9 28.6
2015-Jan-19 07:00N 15°18' E 136°18'0 0.4 28.6
2015-Jan-19 06:00N 15°18' E 136°18'1 0.7 28.6
2015-Jan-19 05:00N 15°18' E 136°17'3 0.8 28.6
2015-Jan-19 01:00N 15°15' E 136°17'0 0.1 28.3
2015-Jan-19 00:00N 15°15' E 136°18'0 0.0 28.2
2015-Jan-18 23:00N 15°15' E 136°18'1 0.7 28.1
2015-Jan-18 21:00N 15°13' E 136°18'0 0.0 28.1
2015-Jan-18 20:00N 15°13' E 136°18'0 0.3 28.1
2015-Jan-18 19:00N 15°13' E 136°18'1 0.8 28.1
2015-Jan-18 18:00N 15°12' E 136°19'1 0.9 28.1
2015-Jan-18 17:00N 15°12' E 136°20'2 1.5 28.1
2015-Jan-18 16:00N 15°11' E 136°21'1 1.3 28.1
2015-Jan-18 15:00N 15°12' E 136°20'2 0.6 28.2
2015-Jan-18 12:00N 15°11' E 136°22'2 0.5 28.1
2015-Jan-18 09:00N 15°11' E 136°23'0 0.3 28.2
2015-Jan-18 08:00N 15°11' E 136°23'0 0.2 28.2
2015-Jan-18 07:00N 15°12' E 136°23'1 0.8 28.2
2015-Jan-18 06:00N 15°12' E 136°24'0 0.0 28.3
2015-Jan-18 05:00N 15°12' E 136°24'1 1.0 28.3
2015-Jan-18 04:00N 15°13' E 136°24'0 0.0 28.3
2015-Jan-18 03:00N 15°13' E 136°24'0 0.2 28.2
2015-Jan-18 01:00N 15°13' E 136°24'1 0.3 28.1
2015-Jan-17 23:00N 15°13' E 136°24'0 0.0 28.1
2015-Jan-17 21:00N 15°13' E 136°24'1 0.8 28.1
2015-Jan-17 20:00N 15°13' E 136°25'0 0.5 28.2
2015-Jan-17 19:00N 15°13' E 136°24'0 0.4 28.2
2015-Jan-17 18:00N 15°13' E 136°24'2 0.9 28.2
2015-Jan-17 16:00N 15°12' E 136°23'1 1.4 28.3
2015-Jan-17 15:00N 15°13' E 136°24'2 0.4 28.3
2015-Jan-17 11:00N 15°12' E 136°22'0 0.0 28.3
2015-Jan-17 10:00N 15°12' E 136°22'1 0.3 28.3
2015-Jan-17 07:00N 15°11' E 136°23'1 0.6 28.6
2015-Jan-17 06:00N 15°11' E 136°23'0 0.0 28.6
2015-Jan-17 05:00N 15°11' E 136°23'1 0.5 28.6
2015-Jan-17 03:00N 15°10' E 136°24'0 0.2 28.4
2015-Jan-17 01:00N 15°10' E 136°24'2 0.8 28.2
2015-Jan-16 23:00N 15°08' E 136°24'0 0.0 28.0
2015-Jan-16 22:00N 15°08' E 136°24'2 0.9 28.0
2015-Jan-16 20:00N 15°09' E 136°26'1 0.6 28.0
2015-Jan-16 19:00N 15°09' E 136°25'0 0.5 28.0
2015-Jan-16 18:00N 15°08' E 136°26'0 0.0 28.0
2015-Jan-16 17:00N 15°08' E 136°26'0 0.1 28.0
2015-Jan-16 16:00N 15°08' E 136°26'0 0.0 28.0
2015-Jan-16 15:00N 15°08' E 136°26'2 1.0 28.0
2015-Jan-16 13:00N 15°06' E 136°26'1 0.3 28.0
2015-Jan-16 11:00N 15°06' E 136°27'0 0.5 28.0
2015-Jan-16 10:00N 15°06' E 136°27'0 0.1 28.0
2015-Jan-16 09:00N 15°06' E 136°27'0 0.0 28.0
2015-Jan-16 07:00N 15°06' E 136°27'1 0.8 28.0
2015-Jan-16 06:00N 15°06' E 136°28'0 0.3 28.0
2015-Jan-16 05:00N 15°05' E 136°28'0 0.0 28.0
2015-Jan-16 03:00N 15°05' E 136°28'2 1.1 28.0
2015-Jan-16 01:00N 15°03' E 136°28'0 0.3 28.0
2015-Jan-16 00:00N 15°03' E 136°28'0 0.0 27.9
2015-Jan-15 21:00N 15°03' E 136°28'1 0.6 28.0
2015-Jan-15 20:00N 15°02' E 136°28'   28.0

Dump ship's entire track history